This is the latest recevied weather packets stored in our database for station/object E24CR-1. If no packets are shown the sender has not sent any weather packets the latest 1 day(s).
| Time | Temp. | Humidity | Pressure | Rain* | Wind** | Luminosity | Snow |
|---|---|---|---|---|---|---|---|
| 1778088893 | 27.22° C | 77% | 951 hPa | - | - | 0 W/m² | - |
| 1778087018 | 25° C | 96% | 951 hPa | - | - | 0 W/m² | - |
| 1778084518 | 26.11° C | 93% | 951 hPa | - | - | 0 W/m² | - |
| 1778083266 | 29.44° C | 58% | 951 hPa | - | - | 0 W/m² | - |
| 1778081320 | 31.11° C | 52% | 951 hPa | - | - | 0 W/m² | - |
| 1778079385 | 31.11° C | 52% | 951 hPa | - | - | 0 W/m² | - |
| 1778077510 | 31.67° C | 51% | 950 hPa | - | - | 0 W/m² | - |
| 1778076258 | 31.67° C | 50% | 950 hPa | - | - | 0 W/m² | - |
| 1778075063 | 30.56° C | 51% | 949 hPa | - | - | 0 W/m² | - |
| 1778074439 | 30.56° C | 52% | 949 hPa | - | - | 0 W/m² | - |
| 1778073814 | 30.56° C | 50% | 948 hPa | - | - | 0 W/m² | - |
| 1778072563 | 32.22° C | 47% | 948 hPa | - | - | 0 W/m² | - |
| 1778071311 | 32.22° C | 46% | 948 hPa | - | - | 0 W/m² | - |
| 1778068809 | 32.78° C | 44% | 948 hPa | - | - | 0 W/m² | - |
| 1778066934 | 33.33° C | 43% | 948 hPa | - | - | 0 W/m² | - |
| 1778064434 | 33.89° C | 42% | 947 hPa | - | - | 0 W/m² | - |
| 1778063184 | 34.44° C | 41% | 947 hPa | - | - | 0 W/m² | - |
| 1778061936 | 36.11° C | 39% | 947 hPa | - | - | 0 W/m² | - |
| 1778060063 | 35.56° C | 39% | 947 hPa | - | - | 0 W/m² | - |
| 1778059439 | 34.44° C | 42% | 948 hPa | - | - | 0 W/m² | - |
| 1778058815 | 33.89° C | 44% | 948 hPa | - | - | 0 W/m² | - |
| 1778058191 | 33.89° C | 47% | 948 hPa | - | - | 0 W/m² | - |
| 1778057567 | 32.78° C | 47% | 948 hPa | - | - | 0 W/m² | - |
| 1778055070 | 36.67° C | 34% | 948 hPa | - | - | 0 W/m² | - |
| 1778053820 | 36.11° C | 35% | 948 hPa | - | - | 0 W/m² | - |
* Rain since midnight (hover to see other rain measurements)
** Current wind speed in m/s (hover to see current wind gust speed)